Time;durP1;ratioP1;P1;durP2;ratioP2;P2;SDS_P1;SDS_P2;PMS_P1;PMS_P2;Temp;Humidity;BMP_temperature;BMP_pressure;BME280_temperature;BME280_humidity;BME280_pressure;Samples;Min_cycle;Max_cycle;Signal;HPM_P1;HPM_P2
2023/08/12 00:00:24;;;;;;;4.10;3.80;;;;;;;16.98;100.00;96772.88;5032203;27;105441;-72
2023/08/12 00:02:51;;;;;;;4.07;3.77;;;;;;;16.93;100.00;96778.28;5035054;27;105683;-73
2023/08/12 00:05:18;;;;;;;3.63;3.33;;;;;;;16.98;100.00;96775.56;5032084;27;105411;-73
2023/08/12 00:07:45;;;;;;;4.13;3.80;;;;;;;16.93;100.00;96772.91;5031456;27;105545;-73
2023/08/12 00:10:13;;;;;;;4.00;3.70;;;;;;;16.85;100.00;96776.19;5031933;27;102015;-72
2023/08/12 00:12:41;;;;;;;3.90;3.60;;;;;;;16.85;100.00;96776.19;5032037;27;105258;-72
2023/08/12 00:15:10;;;;;;;4.53;3.00;;;;;;;16.99;100.00;96777.16;5031552;27;105825;-73
2023/08/12 00:17:37;;;;;;;4.50;3.03;;;;;;;16.95;100.00;96776.13;5031765;27;102077;-74
2023/08/12 00:20:07;;;;;;;4.40;3.30;;;;;;;17.01;100.00;96762.34;5031939;27;105033;-74
2023/08/12 00:22:33;;;;;;;3.17;2.97;;;;;;;17.01;100.00;96762.34;5031242;27;104402;-73
2023/08/12 00:25:01;;;;;;;3.40;3.20;;;;;;;16.97;100.00;96763.22;5053739;27;101746;-73
2023/08/12 00:27:29;;;;;;;3.57;3.27;;;;;;;16.71;100.00;96769.84;5049533;27;102844;-73
2023/08/12 00:29:56;;;;;;;3.50;3.20;;;;;;;16.77;100.00;96764.16;5031761;27;102024;-73
2023/08/12 00:32:23;;;;;;;3.20;3.00;;;;;;;16.76;100.00;96761.75;5031753;27;104316;-73
2023/08/12 00:34:50;;;;;;;3.37;3.07;;;;;;;16.69;100.00;96750.53;5031096;27;105734;-73
2023/08/12 00:37:17;;;;;;;3.00;2.80;;;;;;;16.48;100.00;96749.06;5049865;27;101817;-72
2023/08/12 00:39:44;;;;;;;3.50;3.20;;;;;;;16.39;100.00;96753.41;5049863;27;102764;-72
2023/08/12 00:42:11;;;;;;;3.73;3.30;;;;;;;16.46;100.00;96752.03;5031172;27;105461;-72
2023/08/12 00:44:39;;;;;;;3.30;3.10;;;;;;;16.44;100.00;96748.81;5037685;27;102394;-72
2023/08/12 00:47:06;;;;;;;3.47;3.17;;;;;;;16.49;100.00;96745.28;5034604;27;105658;-72
2023/08/12 00:49:34;;;;;;;3.10;2.90;;;;;;;16.55;100.00;96747.69;5035108;27;102178;-72
2023/08/12 00:52:01;;;;;;;3.50;3.03;;;;;;;16.63;100.00;96746.28;5035333;27;105222;-72
2023/08/12 00:54:29;;;;;;;4.57;3.57;;;;;;;16.62;100.00;96734.72;5034519;27;105849;-72
2023/08/12 00:56:56;;;;;;;3.23;2.97;;;;;;;16.46;100.00;96737.81;5034891;27;102025;-72
2023/08/12 00:59:23;;;;;;;4.07;3.67;;;;;;;16.34;100.00;96738.13;5034758;27;105452;-72
2023/08/12 01:01:52;;;;;;;3.60;3.27;;;;;;;16.37;100.00;96744.81;5034221;27;104472;-72
2023/08/12 01:04:21;;;;;;;3.07;2.87;;;;;;;16.35;100.00;96736.25;5053134;27;101877;-72
2023/08/12 01:06:48;;;;;;;3.37;3.07;;;;;;;16.38;100.00;96738.34;5037767;27;105258;-69
2023/08/12 01:09:15;;;;;;;3.80;3.43;;;;;;;16.37;100.00;96737.56;5034876;27;101963;-69
2023/08/12 01:11:49;;;;;;;3.70;3.40;;;;;;;16.42;100.00;96734.88;5034820;27;104166;-69
2023/08/12 01:14:23;;;;;;;3.73;3.43;;;;;;;16.45;100.00;96736.22;5018018;27;105473;-69
2023/08/12 01:16:54;;;;;;;3.23;3.00;;;;;;;16.27;100.00;96734.13;5034754;27;101838;-69
2023/08/12 01:19:30;;;;;;;3.20;3.00;;;;;;;16.24;100.00;96732.00;5053125;27;102815;-70
2023/08/12 01:22:03;;;;;;;3.20;3.00;;;;;;;16.02;100.00;96728.91;5034110;27;105919;-69
2023/08/12 01:24:37;;;;;;;3.90;3.13;;;;;;;16.13;100.00;96733.16;5034600;27;101858;-69
2023/08/12 01:27:05;;;;;;;3.33;3.13;;;;;;;16.05;100.00;96731.03;5034477;27;105521;-69
2023/08/12 01:29:33;;;;;;;3.77;3.47;;;;;;;16.11;100.00;96720.00;5055932;27;102838;-69
2023/08/12 01:32:12;;;;;;;3.77;3.47;;;;;;;16.12;100.00;96723.47;5034412;27;104030;-69
2023/08/12 01:34:45;;;;;;;4.17;3.40;;;;;;;16.12;100.00;96726.97;5033989;27;105348;-69
2023/08/12 01:37:20;;;;;;;3.97;3.30;;;;;;;16.14;100.00;96721.34;5034474;27;101931;-69
2023/08/12 01:39:50;;;;;;;3.27;3.07;;;;;;;16.11;100.00;96727.25;5034515;27;105385;-69
2023/08/12 01:42:19;;;;;;;3.93;3.17;;;;;;;16.08;100.00;96725.13;5033731;27;105494;-69
2023/08/12 01:44:46;;;;;;;3.60;3.17;;;;;;;16.06;100.00;96719.22;5052428;27;102107;-69
2023/08/12 01:47:13;;;;;;;4.00;3.40;;;;;;;16.05;100.00;96722.97;5034216;27;105583;-74
2023/08/12 01:49:40;;;;;;;3.63;3.33;;;;;;;15.97;100.00;96710.94;5033569;27;105862;-74
2023/08/12 01:52:07;;;;;;;4.20;3.83;;;;;;;15.95;100.00;96717.66;5037597;27;102422;-73
2023/08/12 01:54:34;;;;;;;4.70;3.80;;;;;;;15.84;100.00;96722.28;5032996;27;105484;-73
2023/08/12 01:57:05;;;;;;;3.40;3.10;;;;;;;15.75;100.00;96713.19;5033868;27;102075;-73
2023/08/12 01:59:32;;;;;;;3.70;3.40;;;;;;;15.65;100.00;96717.81;5033845;27;105447;-70
2023/08/12 02:01:59;;;;;;;4.07;3.07;;;;;;;15.64;100.00;96716.22;5033279;27;105427;-71
2023/08/12 02:04:27;;;;;;;3.40;3.20;;;;;;;15.66;100.00;96711.38;5033869;27;102270;-71
2023/08/12 02:06:54;;;;;;;3.20;2.90;;;;;;;15.52;100.00;96713.00;5034085;27;105368;-71
2023/08/12 02:09:22;;;;;;;3.87;3.57;;;;;;;15.57;100.00;96713.00;5033297;27;104808;-71
2023/08/12 02:11:49;;;;;;;4.33;3.57;;;;;;;15.65;100.00;96712.44;5033758;27;101982;-71
2023/08/12 02:14:18;;;;;;;3.70;3.40;;;;;;;15.57;100.00;96713.00;5036560;27;105491;-72
2023/08/12 02:16:45;;;;;;;4.23;3.33;;;;;;;15.51;100.00;96714.09;5033868;27;101971;-72
2023/08/12 02:19:12;;;;;;;3.70;3.40;;;;;;;15.41;100.00;96716.78;5033910;27;105472;-72
2023/08/12 02:21:39;;;;;;;3.27;3.07;;;;;;;15.46;100.00;96714.91;5033060;27;105459;-71
2023/08/12 02:24:07;;;;;;;3.00;2.70;;;;;;;15.50;100.00;96709.81;5033794;27;102365;-72
2023/08/12 02:26:35;;;;;;;3.17;2.90;;;;;;;15.50;100.00;96710.63;5033746;27;105211;-71
2023/08/12 02:29:02;;;;;;;3.63;3.33;;;;;;;15.55;100.00;96709.81;5032910;27;105575;-71
2023/08/12 02:31:31;;;;;;;4.43;3.40;;;;;;;15.48;100.00;96709.28;5051941;27;101808;-72
2023/08/12 02:33:58;;;;;;;5.23;3.73;;;;;;;15.44;100.00;96710.91;5033534;27;105858;-72
2023/08/12 02:36:26;;;;;;;3.50;3.20;;;;;;;15.46;100.00;96711.44;5035908;27;101922;-72
2023/08/12 02:38:56;;;;;;;4.27;3.30;;;;;;;15.49;100.00;96713.56;5033497;27;104939;-72
2023/08/12 02:41:23;;;;;;;3.87;3.53;;;;;;;15.52;100.00;96707.66;5032830;27;105621;-72
2023/08/12 02:43:50;;;;;;;3.57;3.30;;;;;;;15.55;100.00;96696.41;5033275;27;101894;-70
2023/08/12 02:46:18;;;;;;;3.70;3.40;;;;;;;15.50;100.00;96705.25;5033385;27;105298;-70
2023/08/12 02:48:47;;;;;;;3.60;3.30;;;;;;;15.46;100.00;96700.69;5032667;27;104691;-70
2023/08/12 02:51:14;;;;;;;5.20;4.10;;;;;;;15.44;100.00;96697.50;5033433;27;102210;-70
2023/08/12 02:53:41;;;;;;;3.70;3.40;;;;;;;15.28;100.00;96695.91;5033302;27;105381;-70
2023/08/12 02:56:08;;;;;;;3.40;3.10;;;;;;;15.29;100.00;96692.16;5036237;27;105250;-70
2023/08/12 02:58:37;;;;;;;3.97;3.60;;;;;;;15.25;100.00;96691.91;5032804;27;104182;-70
2023/08/12 03:01:05;;;;;;;3.57;3.27;;;;;;;15.22;100.00;96681.75;5032202;27;105466;-70
2023/08/12 03:03:32;;;;;;;4.07;3.50;;;;;;;15.15;100.00;96681.19;5032940;27;101827;-69
2023/08/12 03:06:00;;;;;;;3.90;3.50;;;;;;;15.20;100.00;96685.75;5032011;27;105373;-69
2023/08/12 03:08:29;;;;;;;3.43;3.23;;;;;;;15.15;100.00;96680.41;5032481;27;106041;-70
2023/08/12 03:11:00;;;;;;;3.30;3.10;;;;;;;15.09;100.00;96684.97;5032867;27;102054;-72
2023/08/12 03:13:27;;;;;;;3.20;3.00;;;;;;;15.13;100.00;96677.19;5033161;27;105188;-72
2023/08/12 03:15:54;;;;;;;3.93;3.20;;;;;;;15.12;100.00;96680.94;5032436;27;105645;-72
2023/08/12 03:18:22;;;;;;;3.37;3.07;;;;;;;15.17;100.00;96680.94;5036332;27;101998;-72
2023/08/12 03:20:49;;;;;;;3.80;3.50;;;;;;;15.15;100.00;96675.84;5032210;27;105500;-72
2023/08/12 03:23:18;;;;;;;3.80;3.40;;;;;;;15.08;100.00;96680.69;5032719;27;101925;-72
2023/08/12 03:25:48;;;;;;;4.63;3.53;;;;;;;15.01;100.00;96682.03;5032616;27;105411;-71
2023/08/12 03:28:15;;;;;;;3.37;2.87;;;;;;;14.80;100.00;96680.47;5032166;27;105611;-69
2023/08/12 03:30:43;;;;;;;3.50;3.20;;;;;;;14.88;100.00;96680.72;5032798;27;101932;-72
2023/08/12 03:33:10;;;;;;;3.23;3.03;;;;;;;14.89;100.00;96673.50;5032504;27;104012;-72
2023/08/12 03:35:38;;;;;;;4.03;3.73;;;;;;;14.87;100.00;96667.63;5031877;27;105401;-72
2023/08/12 03:38:05;;;;;;;3.33;3.13;;;;;;;14.76;100.00;96671.34;5032536;27;102171;-71
2023/08/12 03:40:39;;;;;;;3.10;2.90;;;;;;;14.73;100.00;96667.38;5035358;27;105012;-72
2023/08/12 03:43:06;;;;;;;3.00;2.80;;;;;;;14.78;100.00;96669.22;5032473;27;101813;-72
2023/08/12 03:45:34;;;;;;;3.20;2.90;;;;;;;14.81;100.00;96668.66;5032554;27;104081;-72
2023/08/12 03:48:01;;;;;;;3.40;3.10;;;;;;;14.74;100.00;96666.28;5031949;27;105638;-71
2023/08/12 03:50:28;;;;;;;4.00;3.20;;;;;;;14.78;100.00;96658.53;5032518;27;102028;-71
2023/08/12 03:52:55;;;;;;;4.87;3.53;;;;;;;14.68;100.00;96664.69;5032496;27;103916;-72
2023/08/12 03:55:22;;;;;;;4.73;3.70;;;;;;;14.66;100.00;96658.78;5031531;27;105857;-70
2023/08/12 03:57:51;;;;;;;5.50;3.97;;;;;;;14.73;100.00;96656.66;5031855;27;101875;-70
2023/08/12 04:00:19;;;;;;;4.07;3.67;;;;;;;14.78;100.00;96653.16;5031774;27;105186;-70
2023/08/12 04:02:46;;;;;;;4.00;3.30;;;;;;;14.73;100.00;96656.66;5053504;27;102884;-74
2023/08/12 04:05:13;;;;;;;3.80;3.50;;;;;;;14.75;100.00;96669.75;5032041;27;105390;-76
2023/08/12 04:07:39;;;;;;;3.93;3.40;;;;;;;14.76;100.00;96663.31;5031383;27;105795;-73
2023/08/12 04:10:08;;;;;;;3.70;3.40;;;;;;;14.72;100.00;96667.63;5031849;27;101971;-75
2023/08/12 04:12:34;;;;;;;3.70;3.50;;;;;;;14.78;100.00;96670.00;5032107;27;105679;-75
2023/08/12 04:15:05;;;;;;;4.10;3.77;;;;;;;14.73;100.00;96662.00;5031526;27;105572;-75
2023/08/12 04:17:32;;;;;;;3.90;3.60;;;;;;;14.82;100.00;96660.38;5031631;27;101917;-74
2023/08/12 04:19:59;;;;;;;4.00;3.70;;;;;;;14.84;100.00;96652.09;5032033;27;105135;-75
2023/08/12 04:22:27;;;;;;;3.87;3.10;;;;;;;14.80;100.00;96661.72;5031326;27;105133;-71
2023/08/12 04:24:55;;;;;;;3.60;3.30;;;;;;;14.79;100.00;96655.56;5035084;27;102107;-72
2023/08/12 04:27:22;;;;;;;5.57;3.40;;;;;;;14.86;100.00;96650.75;5031073;27;105803;-72
2023/08/12 04:29:49;;;;;;;3.70;3.40;;;;;;;14.90;100.00;96656.34;5031798;27;101987;-73
2023/08/12 04:32:18;;;;;;;3.47;3.20;;;;;;;14.97;100.00;96664.91;5031778;27;105826;-71
2023/08/12 04:34:47;;;;;;;4.40;3.30;;;;;;;15.06;100.00;96660.59;5031236;27;104551;-72
2023/08/12 04:37:15;;;;;;;4.10;3.67;;;;;;;15.15;100.00;96656.31;5031660;27;101971;-72
2023/08/12 04:39:45;;;;;;;4.57;4.17;;;;;;;15.24;100.00;96660.00;5031465;27;105110;-73
2023/08/12 04:42:12;;;;;;;3.50;3.20;;;;;;;15.31;100.00;96652.50;5031154;27;105717;-75
2023/08/12 04:44:40;;;;;;;4.10;3.80;;;;;;;15.40;100.00;96662.41;5035134;27;101932;-76
2023/08/12 04:47:07;;;;;;;4.80;4.30;;;;;;;15.48;100.00;96669.09;5031146;27;104987;-80
2023/08/12 04:49:38;;;;;;;4.20;3.80;;;;;;;15.57;100.00;96664.75;5031775;27;102764;-71
2023/08/12 04:52:06;;;;;;;3.80;3.50;;;;;;;15.65;100.00;96664.97;5031695;27;105321;-71
2023/08/12 04:54:33;;;;;;;3.70;3.50;;;;;;;15.75;100.00;96664.16;5030803;27;105547;-71
2023/08/12 04:57:01;;;;;;;3.80;3.50;;;;;;;15.85;100.00;96661.38;5031573;27;102668;-71
2023/08/12 04:59:28;;;;;;;4.00;3.70;;;;;;;15.92;100.00;96665.38;5031292;27;105368;-71
2023/08/12 05:01:55;;;;;;;4.40;4.00;;;;;;;16.01;100.00;96676.31;5030530;27;106315;-82
2023/08/12 05:04:23;;;;;;;5.47;4.97;;;;;;;16.01;100.00;96681.69;5031294;27;101895;-84
2023/08/12 05:06:51;;;;;;;4.93;4.53;;;;;;;16.09;100.00;96678.44;5034246;27;105184;-85
2023/08/12 05:09:19;;;;;;;4.53;4.23;;;;;;;16.24;100.00;96678.34;5031364;27;101904;-86
2023/08/12 05:11:46;;;;;;;4.73;4.23;;;;;;;16.39;100.00;96668.31;5031280;27;104795;-86
2023/08/12 05:14:13;;;;;;;4.53;4.23;;;;;;;16.54;100.00;96670.09;5030737;27;105443;-81
2023/08/12 05:16:39;;;;;;;4.40;4.10;;;;;;;16.62;100.00;96664.13;5031278;27;101954;-81
2023/08/12 05:19:06;;;;;;;4.43;4.10;;;;;;;16.75;100.00;96668.84;5049618;27;102697;-82
2023/08/12 05:21:34;;;;;;;4.30;4.00;;;;;;;16.83;100.00;96662.84;5030631;27;105339;-82
2023/08/12 05:24:03;;;;;;;4.20;3.90;;;;;;;16.95;100.00;96660.59;5031113;27;101890;-79
2023/08/12 05:26:30;;;;;;;4.13;3.83;;;;;;;17.06;100.00;96657.50;5031290;27;105261;-79
2023/08/12 05:28:57;;;;;;;4.20;3.90;;;;;;;17.15;100.00;96658.50;5034121;27;105308;-81
2023/08/12 05:31:24;;;;;;;4.27;3.83;;;;;;;17.26;100.00;96660.00;5052898;27;103034;-81
2023/08/12 05:33:52;;;;;;;4.67;4.37;;;;;;;17.39;100.00;96663.94;5034037;27;105295;-83
2023/08/12 05:36:19;;;;;;;5.00;4.50;;;;;;;17.46;100.00;96662.50;5034174;27;102190;-78
2023/08/12 05:38:45;;;;;;;4.73;4.23;;;;;;;17.54;100.00;96661.84;5034546;27;104959;-76
2023/08/12 05:41:14;;;;;;;4.97;4.10;;;;;;;17.70;100.00;96663.25;5052316;27;103202;-81
2023/08/12 05:43:40;;;;;;;4.43;4.13;;;;;;;17.83;100.00;96653.69;5034395;27;102132;-80
2023/08/12 05:46:07;;;;;;;4.83;4.37;;;;;;;17.99;100.00;96663.16;5034342;27;105552;-80
2023/08/12 05:48:34;;;;;;;5.00;4.50;;;;;;;18.13;100.00;96659.47;5033584;27;105671;-82
2023/08/12 05:51:01;;;;;;;4.60;4.20;;;;;;;18.26;100.00;96663.31;5037776;27;101994;-83
2023/08/12 05:53:28;;;;;;;5.00;4.60;;;;;;;18.38;100.00;96653.75;5033645;27;104472;-77
2023/08/12 05:55:55;;;;;;;5.07;4.67;;;;;;;18.53;100.00;96655.38;5034170;27;102006;-79
2023/08/12 05:58:23;;;;;;;5.67;5.17;;;;;;;18.61;100.00;96654.69;5034134;27;104947;-81
2023/08/12 06:00:50;;;;;;;5.70;5.07;;;;;;;18.66;100.00;96657.31;5033297;27;105568;-78
2023/08/12 06:03:17;;;;;;;5.00;4.57;;;;;;;18.84;100.00;96659.97;5033987;27;101871;-78
2023/08/12 06:05:46;;;;;;;4.87;4.47;;;;;;;19.03;100.00;96654.53;5033787;27;104935;-78
2023/08/12 06:08:13;;;;;;;7.30;4.97;;;;;;;19.11;100.00;96660.03;5033379;27;105504;-79
2023/08/12 06:10:40;;;;;;;6.70;5.40;;;;;;;18.91;100.00;96657.69;5034021;27;102061;-79
2023/08/12 06:13:08;;;;;;;5.50;5.00;;;;;;;18.97;100.00;96658.41;5037020;27;105389;-79
2023/08/12 06:15:36;;;;;;;5.67;5.13;;;;;;;19.22;100.00;96656.09;5033572;27;102066;-78
2023/08/12 06:18:04;;;;;;;5.17;4.67;;;;;;;19.31;100.00;96653.50;5052080;27;102613;-79
2023/08/12 06:20:30;;;;;;;5.43;4.77;;;;;;;19.35;100.00;96643.72;5033169;27;106272;-78
2023/08/12 06:22:57;;;;;;;5.27;4.70;;;;;;;19.43;100.00;96641.13;5033918;27;102096;-78
2023/08/12 06:25:24;;;;;;;4.53;4.13;;;;;;;19.67;100.00;96651.69;5033464;27;105574;-79
2023/08/12 06:27:51;;;;;;;4.60;3.93;;;;;;;19.99;100.00;96646.94;5033007;27;105543;-79
2023/08/12 06:30:18;;;;;;;4.90;4.50;;;;;;;19.98;100.00;96647.25;5033565;27;102294;-80
2023/08/12 06:32:46;;;;;;;5.53;4.10;;;;;;;20.07;100.00;96653.56;5033547;27;105365;-79
2023/08/12 06:35:13;;;;;;;4.33;4.03;;;;;;;20.20;100.00;96655.41;5036400;27;106038;-82
2023/08/12 06:37:41;;;;;;;4.43;4.03;;;;;;;20.33;100.00;96657.28;5034844;27;105185;-77
2023/08/12 06:40:09;;;;;;;3.63;3.33;;;;;;;20.63;100.00;96646.56;5033040;27;105213;-78
2023/08/12 06:42:36;;;;;;;3.87;3.50;;;;;;;20.78;100.00;96645.38;5051859;27;102223;-77
2023/08/12 06:45:03;;;;;;;4.13;3.83;;;;;;;20.85;100.00;96645.75;5033633;27;104309;-77
2023/08/12 06:47:31;;;;;;;4.20;3.20;;;;;;;20.87;100.00;96646.25;5032736;27;105758;-77
2023/08/12 06:49:59;;;;;;;3.80;3.50;;;;;;;20.74;100.00;96653.31;5033320;27;101995;-77
2023/08/12 06:52:26;;;;;;;4.00;3.60;;;;;;;20.95;100.00;96642.81;5033477;27;104775;-77
2023/08/12 06:54:53;;;;;;;4.27;3.60;;;;;;;21.03;100.00;96640.16;5036242;27;105475;-77
2023/08/12 06:57:20;;;;;;;3.10;2.90;;;;;;;21.24;100.00;96629.59;5032960;27;105270;-77
2023/08/12 06:59:49;;;;;;;3.47;3.17;;;;;;;21.49;100.00;96631.63;5032143;27;104037;-77
2023/08/12 07:02:16;;;;;;;3.57;3.27;;;;;;;21.65;100.00;96627.38;5033147;27;102035;-77
2023/08/12 07:04:43;;;;;;;3.33;3.13;;;;;;;21.85;100.00;96630.31;5051481;27;102118;-77
2023/08/12 07:07:11;;;;;;;4.47;3.20;;;;;;;21.68;100.00;96632.19;5032397;27;105457;-77
2023/08/12 07:09:38;;;;;;;4.60;3.10;;;;;;;21.72;100.00;96619.59;5032865;27;101901;-77
2023/08/12 07:12:06;;;;;;;3.57;3.27;;;;;;;21.89;100.00;96619.63;5032886;27;105141;-77
2023/08/12 07:14:33;;;;;;;5.07;4.23;;;;;;;22.20;100.00;96621.13;5032296;27;105334;-77
2023/08/12 07:17:00;;;;;;;3.40;3.20;;;;;;;22.49;100.00;96620.50;5036453;27;102048;-77
2023/08/12 07:19:27;;;;;;;3.10;2.90;;;;;;;22.59;100.00;96614.75;5032199;27;105118;-77
2023/08/12 07:21:54;;;;;;;3.47;2.80;;;;;;;22.73;100.00;96612.69;5032908;27;102189;-77
2023/08/12 07:24:23;;;;;;;3.27;2.93;;;;;;;22.82;100.00;96613.44;5032892;27;103924;-77
2023/08/12 07:26:50;;;;;;;2.93;2.73;;;;;;;22.77;100.00;96616.34;5032203;27;103713;-77
2023/08/12 07:29:16;;;;;;;3.70;2.87;;;;;;;23.02;100.00;96612.75;5032866;27;101907;-77
2023/08/12 07:31:43;;;;;;;3.20;2.90;;;;;;;23.15;100.00;96614.50;5032855;27;105499;-77
2023/08/12 07:34:13;;;;;;;3.03;2.70;;;;;;;23.30;100.00;96608.53;5031991;27;105599;-77
2023/08/12 07:36:40;;;;;;;3.63;2.70;;;;;;;23.38;100.00;96607.72;5032824;27;102126;-77
2023/08/12 07:39:08;;;;;;;2.90;2.70;;;;;;;23.57;100.00;96613.53;5036569;27;101989;-77
2023/08/12 07:41:37;;;;;;;3.70;2.63;;;;;;;23.77;100.00;96618.22;5032519;27;102124;-77
2023/08/12 07:44:04;;;;;;;3.20;2.67;;;;;;;23.61;100.00;96618.00;5032494;27;104830;-77
2023/08/12 07:46:31;;;;;;;4.80;2.80;;;;;;;23.77;100.00;96618.22;5049426;27;103306;-77
2023/08/12 07:48:58;;;;;;;2.43;2.33;;;;;;;23.66;100.00;96619.72;5032399;27;102296;-77
2023/08/12 07:51:26;;;;;;;2.33;2.23;;;;;;;23.73;100.00;96612.66;5032275;27;105536;-76
2023/08/12 07:53:53;;;;;;;2.30;2.20;;;;;;;23.88;100.00;96605.84;5031382;27;104468;-77
2023/08/12 07:56:22;;;;;;;2.30;2.20;;;;;;;23.92;100.00;96612.25;5032380;27;102139;-77
2023/08/12 07:58:56;;;;;;;2.10;2.00;;;;;;;24.20;100.00;96605.19;5032209;27;105981;-77
2023/08/12 08:01:26;;;;;;;2.43;1.97;;;;;;;24.50;100.00;96604.75;5035123;27;105339;-77
2023/08/12 08:03:52;;;;;;;2.63;2.40;;;;;;;24.55;100.00;96596.41;5032376;27;105441;-77
2023/08/12 08:06:19;;;;;;;3.60;2.40;;;;;;;24.49;100.00;96596.94;5031479;27;105651;-77
2023/08/12 08:08:46;;;;;;;2.33;2.13;;;;;;;24.49;100.00;96600.47;5032150;27;101996;-77
2023/08/12 08:11:13;;;;;;;4.30;2.47;;;;;;;24.58;100.00;96594.97;5032354;27;105279;-77
2023/08/12 08:13:40;;;;;;;2.63;2.43;;;;;;;24.34;100.00;96605.69;5031429;27;105007;-77
2023/08/12 08:16:09;;;;;;;2.70;2.30;;;;;;;24.18;100.00;96601.97;5031929;27;102150;-77
2023/08/12 08:18:38;;;;;;;2.13;1.90;;;;;;;24.72;100.00;96595.47;5032140;27;104563;-77
2023/08/12 08:21:05;;;;;;;3.03;2.50;;;;;;;24.84;100.00;96593.56;5031362;27;105888;-77
2023/08/12 08:23:31;;;;;;;2.17;2.00;;;;;;;25.15;100.00;96595.78;5035357;27;101989;-77
2023/08/12 08:25:58;;;;;;;2.17;1.97;;;;;;;25.41;100.00;96586.22;5031178;27;105587;-77
2023/08/12 08:28:25;;;;;;;2.80;2.50;;;;;;;25.53;100.00;96582.69;5031782;27;102294;-77
2023/08/12 08:30:55;;;;;;;3.13;2.47;;;;;;;25.85;100.00;96589.94;5031846;27;105309;-77
2023/08/12 08:33:23;;;;;;;2.87;2.43;;;;;;;25.94;100.00;96587.94;5031306;27;105039;-77
2023/08/12 08:35:53;;;;;;;3.53;2.37;;;;;;;26.07;100.00;96586.75;5031814;27;102053;-77
2023/08/12 08:38:23;;;;;;;2.57;2.20;;;;;;;26.10;100.00;96594.28;5031688;27;105346;-77
2023/08/12 08:40:53;;;;;;;2.50;2.30;;;;;;;26.27;100.00;96586.59;5031071;27;105864;-77
2023/08/12 08:43:25;;;;;;;2.43;2.10;;;;;;;26.46;100.00;96594.97;5031740;27;101967;-77
2023/08/12 08:45:57;;;;;;;2.20;2.00;;;;;;;26.54;100.00;96591.28;5052809;27;102729;-77
2023/08/12 08:48:26;;;;;;;3.33;2.00;;;;;;;26.49;100.00;96596.19;5031663;27;102031;-77
2023/08/12 08:50:57;;;;;;;3.63;1.90;;;;;;;26.86;100.00;96581.28;5031468;27;103931;-77
2023/08/12 08:53:26;;;;;;;2.37;2.27;;;;;;;27.03;100.00;96591.88;5031016;27;104588;-77
2023/08/12 08:55:56;;;;;;;3.30;2.43;;;;;;;27.09;100.00;96596.72;5031205;27;101968;-77
2023/08/12 08:58:23;;;;;;;2.43;2.00;;;;;;;26.55;100.00;96595.66;5031475;27;105255;-77
2023/08/12 09:00:50;;;;;;;3.20;2.20;;;;;;;26.43;100.00;96600.31;5030708;27;105037;-77
2023/08/12 09:03:17;;;;;;;3.23;2.20;;;;;;;26.82;100.00;96602.22;5031414;27;102063;-77
2023/08/12 09:05:46;;;;;;;2.93;2.43;;;;;;;26.86;100.00;96597.66;5037009;27;104814;-77
2023/08/12 09:08:17;;;;;;;2.43;2.20;;;;;;;27.31;100.00;96600.84;5034803;27;102381;-77
2023/08/12 09:10:48;;;;;;;2.70;2.10;;;;;;;27.42;100.00;96593.69;5034910;27;105356;-77
2023/08/12 09:13:18;;;;;;;2.23;2.00;;;;;;;27.34;100.00;96594.66;5034270;27;105447;-77
2023/08/12 09:15:45;;;;;;;2.37;2.17;;;;;;;27.55;100.00;96593.25;5034750;27;102046;-77
2023/08/12 09:18:12;;;;;;;3.30;2.40;;;;;;;27.78;100.00;96605.16;5034781;27;105320;-77
2023/08/12 09:20:39;;;;;;;2.30;2.10;;;;;;;27.83;100.00;96602.16;5052477;27;103060;-77
2023/08/12 09:23:08;;;;;;;2.77;2.50;;;;;;;27.63;100.00;96599.69;5034745;27;102321;-77
2023/08/12 09:25:38;;;;;;;2.53;2.33;;;;;;;28.26;100.00;96601.16;5034681;27;103812;-77
2023/08/12 09:28:05;;;;;;;2.30;2.20;;;;;;;28.54;100.00;96599.03;5037414;27;105372;-79
2023/08/12 09:30:32;;;;;;;2.57;2.20;;;;;;;28.79;100.00;96600.34;5034383;27;104872;-78
2023/08/12 09:33:03;;;;;;;3.03;2.20;;;;;;;28.74;100.00;96600.63;5034077;27;105780;-78
2023/08/12 09:35:35;;;;;;;2.72;2.40;;;;;;;28.59;100.00;96604.22;5034756;27;102183;-79
2023/08/12 09:38:04;;;;;;;2.30;2.13;;;;;;;28.51;96.86;96597.84;5034485;27;105645;-79
2023/08/12 09:40:33;;;;;;;2.50;2.22;;;;;;;27.93;96.43;96590.69;5034028;27;104307;-79
2023/08/12 09:43:03;;;;;;;2.28;2.17;;;;;;;28.00;100.00;96598.25;5034332;27;102288;-79
2023/08/12 09:45:34;;;;;;;3.10;2.13;;;;;;;28.03;100.00;96592.06;5034449;27;105420;-79
2023/08/12 09:48:01;;;;;;;3.05;1.98;;;;;;;28.32;94.24;96592.31;5033532;27;103865;-79
2023/08/12 09:50:30;;;;;;;6.30;2.40;;;;;;;28.74;92.46;96595.16;5037779;27;102028;-79
2023/08/12 09:52:57;;;;;;;2.22;2.10;;;;;;;28.96;96.97;96598.00;5033539;27;105375;-81
2023/08/12 09:55:25;;;;;;;2.05;1.95;;;;;;;28.47;100.00;96596.16;5034041;27;102127;-80
2023/08/12 09:57:59;;;;;;;2.30;2.20;;;;;;;28.56;100.00;96594.03;5034031;27;103939;-80
2023/08/12 10:00:26;;;;;;;2.28;2.05;;;;;;;28.65;100.00;96595.38;5033068;27;105524;-80
2023/08/12 10:02:54;;;;;;;2.20;2.10;;;;;;;29.06;97.57;96591.13;5034172;27;102017;-80
2023/08/12 10:05:26;;;;;;;2.80;2.28;;;;;;;29.51;100.00;96583.69;5034010;27;105034;-80
2023/08/12 10:07:54;;;;;;;1.80;1.70;;;;;;;29.97;87.70;96581.72;5033230;27;105786;-80
2023/08/12 10:10:23;;;;;;;2.20;2.00;;;;;;;29.45;95.14;96585.16;5052552;27;102286;-80
2023/08/12 10:12:51;;;;;;;2.15;1.95;;;;;;;30.01;89.78;96582.53;5054882;27;102643;-80
2023/08/12 10:15:20;;;;;;;2.25;1.83;;;;;;;30.10;71.18;96580.31;5033608;27;102009;-80
2023/08/12 10:17:48;;;;;;;1.73;1.63;;;;;;;30.35;70.11;96581.50;5033862;27;105296;-80
2023/08/12 10:20:22;;;;;;;1.80;1.70;;;;;;;30.43;73.64;96580.41;5033264;27;104725;-80
2023/08/12 10:22:50;;;;;;;2.20;1.67;;;;;;;30.81;65.64;96582.84;5052396;27;101940;-79
2023/08/12 10:25:21;;;;;;;2.10;1.90;;;;;;;31.18;67.27;96580.91;5033911;27;104157;-80
2023/08/12 10:27:51;;;;;;;1.80;1.70;;;;;;;31.34;54.42;96573.25;5032744;27;105307;-81
2023/08/12 10:30:21;;;;;;;2.00;1.80;;;;;;;30.40;71.71;96572.94;5033708;27;102042;-81
2023/08/12 10:32:51;;;;;;;2.10;1.95;;;;;;;30.93;80.75;96572.41;5033822;27;103979;-80
2023/08/12 10:35:18;;;;;;;2.00;1.80;;;;;;;31.86;70.90;96572.91;5036663;27;106192;-80
2023/08/12 10:37:50;;;;;;;2.75;1.90;;;;;;;31.84;69.98;96576.06;5033765;27;105484;-80
2023/08/12 10:40:22;;;;;;;3.88;1.85;;;;;;;32.05;62.31;96576.19;5033072;27;104094;-80
2023/08/12 10:42:50;;;;;;;1.95;1.80;;;;;;;31.57;57.60;96573.81;5051982;27;101982;-80
2023/08/12 10:45:19;;;;;;;2.20;1.77;;;;;;;31.92;57.71;96565.88;5033582;27;105022;-80
2023/08/12 10:48:09;;;;;;;3.08;1.73;;;;;;;31.75;60.40;96561.03;5032747;27;105859;-80
2023/08/12 10:50:36;;;;;;;2.22;2.00;;;;;;;31.86;56.36;96562.69;5033303;27;103110;-79
2023/08/12 10:53:24;;;;;;;1.90;1.80;;;;;;;32.05;66.00;96558.88;5033245;27;105612;-79
2023/08/12 10:55:55;;;;;;;2.10;1.90;;;;;;;31.82;50.53;96552.84;5032738;27;105512;-80
2023/08/12 10:58:30;;;;;;;1.60;1.50;;;;;;;31.30;52.16;96553.16;5036796;27;101794;-80
2023/08/12 11:01:04;;;;;;;1.55;1.50;;;;;;;31.27;48.83;96551.97;5032212;27;104456;-80
2023/08/12 11:03:36;;;;;;;1.95;1.85;;;;;;;31.61;48.68;96549.91;5033232;27;101805;-80
2023/08/12 11:06:06;;;;;;;2.08;1.58;;;;;;;31.80;53.96;96558.72;5033367;27;105267;-80
2023/08/12 11:08:34;;;;;;;1.80;1.70;;;;;;;32.01;54.78;96550.63;5032407;27;105433;-80
2023/08/12 11:11:05;;;;;;;1.73;1.63;;;;;;;32.50;49.11;96542.63;5032800;27;102063;-80
2023/08/12 11:13:52;;;;;;;2.00;1.85;;;;;;;31.85;48.64;96547.38;5033109;27;105163;-80
2023/08/12 11:16:33;;;;;;;2.65;1.95;;;;;;;31.99;49.97;96543.91;5032210;27;105135;-79
2023/08/12 11:19:05;;;;;;;1.70;1.60;;;;;;;32.39;51.75;96552.81;5036439;27;102064;-80
2023/08/12 11:21:36;;;;;;;2.45;1.60;;;;;;;32.46;50.41;96541.81;5032215;27;105055;-79
2023/08/12 11:24:06;;;;;;;1.83;1.73;;;;;;;31.74;52.28;96542.94;5032872;27;102067;-79